sensor_id;sensor_type;location;lat;lon;timestamp;P1;durP1;ratioP1;P2;durP2;ratioP2
2944;SDS011;1482;51.398;7.128;2023-03-01T00:01:25;18.20;;;12.23;;
2944;SDS011;1482;51.398;7.128;2023-03-01T00:03:53;17.20;;;10.60;;
2944;SDS011;1482;51.398;7.128;2023-03-01T00:06:19;13.93;;;10.03;;
2944;SDS011;1482;51.398;7.128;2023-03-01T00:08:46;20.30;;;11.87;;
2944;SDS011;1482;51.398;7.128;2023-03-01T00:11:19;16.17;;;9.90;;
2944;SDS011;1482;51.398;7.128;2023-03-01T00:13:46;13.30;;;10.33;;
2944;SDS011;1482;51.398;7.128;2023-03-01T00:16:24;16.27;;;11.83;;
2944;SDS011;1482;51.398;7.128;2023-03-01T00:18:53;15.43;;;10.03;;
2944;SDS011;1482;51.398;7.128;2023-03-01T00:21:19;12.80;;;9.90;;
2944;SDS011;1482;51.398;7.128;2023-03-01T00:23:46;13.73;;;10.90;;
2944;SDS011;1482;51.398;7.128;2023-03-01T00:26:14;16.00;;;10.03;;
2944;SDS011;1482;51.398;7.128;2023-03-01T00:28:41;13.67;;;9.40;;
2944;SDS011;1482;51.398;7.128;2023-03-01T00:31:08;15.20;;;10.17;;
2944;SDS011;1482;51.398;7.128;2023-03-01T00:33:36;14.13;;;10.03;;
2944;SDS011;1482;51.398;7.128;2023-03-01T00:36:02;18.10;;;11.90;;
2944;SDS011;1482;51.398;7.128;2023-03-01T00:38:28;13.43;;;9.33;;
2944;SDS011;1482;51.398;7.128;2023-03-01T00:40:53;16.17;;;9.87;;
2944;SDS011;1482;51.398;7.128;2023-03-01T00:43:19;22.97;;;9.00;;
2944;SDS011;1482;51.398;7.128;2023-03-01T00:45:45;11.97;;;9.57;;
2944;SDS011;1482;51.398;7.128;2023-03-01T00:48:11;12.90;;;10.37;;
2944;SDS011;1482;51.398;7.128;2023-03-01T00:50:36;13.80;;;9.67;;
2944;SDS011;1482;51.398;7.128;2023-03-01T00:53:02;20.13;;;10.10;;
2944;SDS011;1482;51.398;7.128;2023-03-01T00:55:27;18.10;;;10.77;;
2944;SDS011;1482;51.398;7.128;2023-03-01T00:57:53;13.50;;;9.17;;
2944;SDS011;1482;51.398;7.128;2023-03-01T01:00:19;16.97;;;10.40;;
2944;SDS011;1482;51.398;7.128;2023-03-01T01:02:45;13.63;;;10.13;;
2944;SDS011;1482;51.398;7.128;2023-03-01T01:05:11;11.60;;;9.40;;
2944;SDS011;1482;51.398;7.128;2023-03-01T01:07:36;15.47;;;11.07;;
2944;SDS011;1482;51.398;7.128;2023-03-01T01:10:02;15.53;;;9.67;;
2944;SDS011;1482;51.398;7.128;2023-03-01T01:12:28;12.87;;;9.80;;
2944;SDS011;1482;51.398;7.128;2023-03-01T01:14:54;16.67;;;11.27;;
2944;SDS011;1482;51.398;7.128;2023-03-01T01:17:20;15.27;;;11.07;;
2944;SDS011;1482;51.398;7.128;2023-03-01T01:19:45;15.87;;;10.60;;
2944;SDS011;1482;51.398;7.128;2023-03-01T01:22:11;14.77;;;9.83;;
2944;SDS011;1482;51.398;7.128;2023-03-01T01:24:36;11.77;;;9.50;;
2944;SDS011;1482;51.398;7.128;2023-03-01T01:27:02;13.97;;;10.30;;
2944;SDS011;1482;51.398;7.128;2023-03-01T01:29:28;14.73;;;10.70;;
2944;SDS011;1482;51.398;7.128;2023-03-01T01:31:53;15.90;;;9.90;;
2944;SDS011;1482;51.398;7.128;2023-03-01T01:34:19;14.63;;;10.60;;
2944;SDS011;1482;51.398;7.128;2023-03-01T01:36:50;16.97;;;10.07;;
2944;SDS011;1482;51.398;7.128;2023-03-01T01:39:21;15.30;;;11.17;;
2944;SDS011;1482;51.398;7.128;2023-03-01T01:41:47;13.43;;;10.90;;
2944;SDS011;1482;51.398;7.128;2023-03-01T01:46:47;11.70;;;9.83;;
2944;SDS011;1482;51.398;7.128;2023-03-01T01:49:19;15.17;;;11.20;;
2944;SDS011;1482;51.398;7.128;2023-03-01T01:57:26;22.67;;;12.77;;
2944;SDS011;1482;51.398;7.128;2023-03-01T02:00:14;14.10;;;9.97;;
2944;SDS011;1482;51.398;7.128;2023-03-01T02:02:42;22.60;;;10.87;;
2944;SDS011;1482;51.398;7.128;2023-03-01T02:05:11;15.37;;;9.73;;
2944;SDS011;1482;51.398;7.128;2023-03-01T02:07:44;18.13;;;12.53;;
2944;SDS011;1482;51.398;7.128;2023-03-01T02:10:11;16.27;;;10.83;;
2944;SDS011;1482;51.398;7.128;2023-03-01T02:12:36;16.30;;;12.83;;
2944;SDS011;1482;51.398;7.128;2023-03-01T02:15:03;17.13;;;9.83;;
2944;SDS011;1482;51.398;7.128;2023-03-01T02:17:30;15.23;;;10.47;;
2944;SDS011;1482;51.398;7.128;2023-03-01T02:22:24;17.37;;;10.97;;
2944;SDS011;1482;51.398;7.128;2023-03-01T02:28:06;16.97;;;12.43;;
2944;SDS011;1482;51.398;7.128;2023-03-01T02:30:34;13.20;;;10.13;;
2944;SDS011;1482;51.398;7.128;2023-03-01T02:33:01;17.60;;;11.67;;
2944;SDS011;1482;51.398;7.128;2023-03-01T02:35:32;18.70;;;11.97;;
2944;SDS011;1482;51.398;7.128;2023-03-01T02:38:01;16.07;;;10.40;;
2944;SDS011;1482;51.398;7.128;2023-03-01T02:40:29;16.57;;;11.07;;
2944;SDS011;1482;51.398;7.128;2023-03-01T02:42:57;19.60;;;10.40;;
2944;SDS011;1482;51.398;7.128;2023-03-01T02:45:24;16.80;;;10.60;;
2944;SDS011;1482;51.398;7.128;2023-03-01T02:47:53;22.40;;;11.03;;
2944;SDS011;1482;51.398;7.128;2023-03-01T02:55:29;18.40;;;10.90;;
2944;SDS011;1482;51.398;7.128;2023-03-01T02:57:55;13.03;;;9.93;;
2944;SDS011;1482;51.398;7.128;2023-03-01T03:00:26;12.60;;;9.80;;
2944;SDS011;1482;51.398;7.128;2023-03-01T03:02:57;17.40;;;11.43;;
2944;SDS011;1482;51.398;7.128;2023-03-01T03:05:27;20.50;;;11.27;;
2944;SDS011;1482;51.398;7.128;2023-03-01T03:07:55;15.70;;;10.10;;
2944;SDS011;1482;51.398;7.128;2023-03-01T03:10:23;14.50;;;11.40;;
2944;SDS011;1482;51.398;7.128;2023-03-01T03:12:50;12.20;;;10.70;;
2944;SDS011;1482;51.398;7.128;2023-03-01T03:15:18;19.20;;;11.23;;
2944;SDS011;1482;51.398;7.128;2023-03-01T03:17:45;14.87;;;11.03;;
2944;SDS011;1482;51.398;7.128;2023-03-01T03:20:12;11.83;;;9.47;;
2944;SDS011;1482;51.398;7.128;2023-03-01T03:22:43;18.77;;;10.77;;
2944;SDS011;1482;51.398;7.128;2023-03-01T03:25:10;20.10;;;13.03;;
2944;SDS011;1482;51.398;7.128;2023-03-01T03:27:37;18.23;;;11.17;;
2944;SDS011;1482;51.398;7.128;2023-03-01T03:30:03;14.73;;;11.40;;
2944;SDS011;1482;51.398;7.128;2023-03-01T03:32:33;16.60;;;11.10;;
2944;SDS011;1482;51.398;7.128;2023-03-01T03:35:03;16.20;;;10.60;;
2944;SDS011;1482;51.398;7.128;2023-03-01T03:37:37;13.97;;;10.97;;
2944;SDS011;1482;51.398;7.128;2023-03-01T03:40:23;15.53;;;10.53;;
2944;SDS011;1482;51.398;7.128;2023-03-01T03:42:50;18.77;;;11.43;;
2944;SDS011;1482;51.398;7.128;2023-03-01T03:45:16;16.70;;;10.57;;
2944;SDS011;1482;51.398;7.128;2023-03-01T03:47:42;15.03;;;11.93;;
2944;SDS011;1482;51.398;7.128;2023-03-01T03:50:08;15.97;;;11.00;;
2944;SDS011;1482;51.398;7.128;2023-03-01T03:52:35;19.07;;;11.40;;
2944;SDS011;1482;51.398;7.128;2023-03-01T03:55:01;14.87;;;11.00;;
2944;SDS011;1482;51.398;7.128;2023-03-01T03:57:26;16.97;;;12.27;;
2944;SDS011;1482;51.398;7.128;2023-03-01T03:59:52;19.67;;;12.83;;
2944;SDS011;1482;51.398;7.128;2023-03-01T04:02:17;18.53;;;13.37;;
2944;SDS011;1482;51.398;7.128;2023-03-01T04:04:47;17.20;;;12.30;;
2944;SDS011;1482;51.398;7.128;2023-03-01T04:07:14;17.30;;;12.33;;
2944;SDS011;1482;51.398;7.128;2023-03-01T04:09:41;18.20;;;12.33;;
2944;SDS011;1482;51.398;7.128;2023-03-01T04:12:07;18.00;;;11.80;;
2944;SDS011;1482;51.398;7.128;2023-03-01T04:14:33;22.50;;;12.30;;
2944;SDS011;1482;51.398;7.128;2023-03-01T04:16:58;19.13;;;11.73;;
2944;SDS011;1482;51.398;7.128;2023-03-01T04:19:24;16.73;;;13.43;;
2944;SDS011;1482;51.398;7.128;2023-03-01T04:21:49;20.63;;;11.83;;
2944;SDS011;1482;51.398;7.128;2023-03-01T04:24:15;22.13;;;13.40;;
2944;SDS011;1482;51.398;7.128;2023-03-01T04:26:41;16.23;;;11.70;;
2944;SDS011;1482;51.398;7.128;2023-03-01T04:29:06;19.17;;;11.47;;
2944;SDS011;1482;51.398;7.128;2023-03-01T04:31:32;17.17;;;14.17;;
2944;SDS011;1482;51.398;7.128;2023-03-01T04:33:59;18.10;;;12.37;;
2944;SDS011;1482;51.398;7.128;2023-03-01T04:36:26;18.97;;;12.70;;
2944;SDS011;1482;51.398;7.128;2023-03-01T04:38:53;17.40;;;12.13;;
2944;SDS011;1482;51.398;7.128;2023-03-01T04:41:20;17.27;;;12.93;;
2944;SDS011;1482;51.398;7.128;2023-03-01T04:43:47;23.20;;;13.47;;
2944;SDS011;1482;51.398;7.128;2023-03-01T04:46:14;21.17;;;13.73;;
2944;SDS011;1482;51.398;7.128;2023-03-01T04:48:42;25.83;;;12.70;;
2944;SDS011;1482;51.398;7.128;2023-03-01T04:51:09;22.03;;;14.07;;
2944;SDS011;1482;51.398;7.128;2023-03-01T04:53:38;18.97;;;12.13;;
2944;SDS011;1482;51.398;7.128;2023-03-01T04:56:04;19.70;;;14.10;;
2944;SDS011;1482;51.398;7.128;2023-03-01T04:58:30;18.80;;;12.30;;
2944;SDS011;1482;51.398;7.128;2023-03-01T05:00:56;19.87;;;14.77;;
2944;SDS011;1482;51.398;7.128;2023-03-01T05:03:21;20.60;;;14.00;;
2944;SDS011;1482;51.398;7.128;2023-03-01T05:05:48;27.23;;;14.70;;
2944;SDS011;1482;51.398;7.128;2023-03-01T05:08:15;18.10;;;13.90;;
2944;SDS011;1482;51.398;7.128;2023-03-01T05:10:48;20.57;;;14.90;;
2944;SDS011;1482;51.398;7.128;2023-03-01T05:13:16;24.73;;;15.27;;
2944;SDS011;1482;51.398;7.128;2023-03-01T05:15:53;30.67;;;17.20;;
2944;SDS011;1482;51.398;7.128;2023-03-01T05:18:20;31.17;;;18.33;;
2944;SDS011;1482;51.398;7.128;2023-03-01T05:20:46;41.13;;;21.13;;
2944;SDS011;1482;51.398;7.128;2023-03-01T05:23:12;35.70;;;21.27;;
2944;SDS011;1482;51.398;7.128;2023-03-01T05:25:38;25.37;;;15.33;;
2944;SDS011;1482;51.398;7.128;2023-03-01T05:28:05;27.00;;;14.00;;
2944;SDS011;1482;51.398;7.128;2023-03-01T05:30:35;25.00;;;14.93;;
2944;SDS011;1482;51.398;7.128;2023-03-01T05:33:03;26.07;;;16.40;;
2944;SDS011;1482;51.398;7.128;2023-03-01T05:35:32;25.60;;;13.97;;
2944;SDS011;1482;51.398;7.128;2023-03-01T05:37:57;19.17;;;13.30;;
2944;SDS011;1482;51.398;7.128;2023-03-01T05:40:23;21.80;;;14.33;;
2944;SDS011;1482;51.398;7.128;2023-03-01T05:42:51;22.17;;;12.80;;
2944;SDS011;1482;51.398;7.128;2023-03-01T05:45:19;22.77;;;14.67;;
2944;SDS011;1482;51.398;7.128;2023-03-01T05:47:47;21.50;;;15.33;;
2944;SDS011;1482;51.398;7.128;2023-03-01T05:50:14;20.67;;;14.60;;
2944;SDS011;1482;51.398;7.128;2023-03-01T05:52:48;20.60;;;13.03;;
2944;SDS011;1482;51.398;7.128;2023-03-01T05:55:19;20.67;;;13.30;;
2944;SDS011;1482;51.398;7.128;2023-03-01T05:57:46;20.23;;;13.90;;
2944;SDS011;1482;51.398;7.128;2023-03-01T06:00:12;19.10;;;13.77;;
2944;SDS011;1482;51.398;7.128;2023-03-01T06:02:40;27.23;;;14.10;;
2944;SDS011;1482;51.398;7.128;2023-03-01T06:05:07;20.87;;;11.60;;
2944;SDS011;1482;51.398;7.128;2023-03-01T06:07:33;20.37;;;13.20;;
2944;SDS011;1482;51.398;7.128;2023-03-01T06:09:59;19.87;;;13.87;;
2944;SDS011;1482;51.398;7.128;2023-03-01T06:12:25;21.03;;;13.50;;
2944;SDS011;1482;51.398;7.128;2023-03-01T06:14:51;17.23;;;12.43;;
2944;SDS011;1482;51.398;7.128;2023-03-01T06:17:17;18.47;;;11.63;;
2944;SDS011;1482;51.398;7.128;2023-03-01T06:19:42;20.40;;;14.63;;
2944;SDS011;1482;51.398;7.128;2023-03-01T06:22:08;21.80;;;11.60;;
2944;SDS011;1482;51.398;7.128;2023-03-01T06:24:33;18.90;;;13.17;;
2944;SDS011;1482;51.398;7.128;2023-03-01T06:26:59;22.47;;;13.03;;
2944;SDS011;1482;51.398;7.128;2023-03-01T06:29:25;19.37;;;13.83;;
2944;SDS011;1482;51.398;7.128;2023-03-01T06:31:50;30.77;;;16.43;;
2944;SDS011;1482;51.398;7.128;2023-03-01T06:34:16;19.73;;;14.43;;
2944;SDS011;1482;51.398;7.128;2023-03-01T06:36:42;22.17;;;14.50;;
2944;SDS011;1482;51.398;7.128;2023-03-01T06:39:08;21.00;;;13.80;;
2944;SDS011;1482;51.398;7.128;2023-03-01T06:41:34;21.57;;;13.60;;
2944;SDS011;1482;51.398;7.128;2023-03-01T06:43:59;22.57;;;14.87;;
2944;SDS011;1482;51.398;7.128;2023-03-01T06:46:25;18.60;;;12.30;;
2944;SDS011;1482;51.398;7.128;2023-03-01T06:48:50;24.17;;;14.30;;
2944;SDS011;1482;51.398;7.128;2023-03-01T06:51:16;20.97;;;13.00;;
2944;SDS011;1482;51.398;7.128;2023-03-01T06:53:41;19.77;;;13.73;;
2944;SDS011;1482;51.398;7.128;2023-03-01T06:56:07;20.17;;;12.80;;
2944;SDS011;1482;51.398;7.128;2023-03-01T06:58:32;22.77;;;14.57;;
2944;SDS011;1482;51.398;7.128;2023-03-01T07:00:58;24.73;;;15.17;;
2944;SDS011;1482;51.398;7.128;2023-03-01T07:03:24;23.43;;;15.30;;
2944;SDS011;1482;51.398;7.128;2023-03-01T07:05:49;17.33;;;13.70;;
2944;SDS011;1482;51.398;7.128;2023-03-01T07:08:17;26.30;;;16.53;;
2944;SDS011;1482;51.398;7.128;2023-03-01T07:10:43;29.43;;;15.67;;
2944;SDS011;1482;51.398;7.128;2023-03-01T07:13:08;22.23;;;14.40;;
2944;SDS011;1482;51.398;7.128;2023-03-01T07:15:34;26.23;;;15.37;;
2944;SDS011;1482;51.398;7.128;2023-03-01T07:17:59;25.70;;;16.00;;
2944;SDS011;1482;51.398;7.128;2023-03-01T07:20:25;23.63;;;14.40;;
2944;SDS011;1482;51.398;7.128;2023-03-01T07:22:54;23.97;;;14.50;;
2944;SDS011;1482;51.398;7.128;2023-03-01T07:25:21;20.40;;;13.47;;
2944;SDS011;1482;51.398;7.128;2023-03-01T07:27:52;18.87;;;13.80;;
2944;SDS011;1482;51.398;7.128;2023-03-01T07:30:19;16.70;;;12.90;;
2944;SDS011;1482;51.398;7.128;2023-03-01T07:32:45;16.63;;;13.00;;
2944;SDS011;1482;51.398;7.128;2023-03-01T07:35:11;18.50;;;12.60;;
2944;SDS011;1482;51.398;7.128;2023-03-01T07:37:37;19.43;;;14.03;;
2944;SDS011;1482;51.398;7.128;2023-03-01T07:40:02;17.43;;;13.17;;
2944;SDS011;1482;51.398;7.128;2023-03-01T07:42:28;12.47;;;11.20;;
2944;SDS011;1482;51.398;7.128;2023-03-01T07:44:54;16.30;;;14.20;;
2944;SDS011;1482;51.398;7.128;2023-03-01T07:47:19;15.60;;;14.10;;
2944;SDS011;1482;51.398;7.128;2023-03-01T07:49:45;15.67;;;13.40;;
2944;SDS011;1482;51.398;7.128;2023-03-01T07:52:11;13.10;;;11.70;;
2944;SDS011;1482;51.398;7.128;2023-03-01T07:54:36;14.17;;;12.77;;
2944;SDS011;1482;51.398;7.128;2023-03-01T07:57:02;13.70;;;11.63;;
2944;SDS011;1482;51.398;7.128;2023-03-01T07:59:28;12.73;;;11.63;;
2944;SDS011;1482;51.398;7.128;2023-03-01T08:01:55;13.40;;;12.10;;
2944;SDS011;1482;51.398;7.128;2023-03-01T08:04:22;14.37;;;12.50;;
2944;SDS011;1482;51.398;7.128;2023-03-01T08:06:49;13.53;;;12.23;;
2944;SDS011;1482;51.398;7.128;2023-03-01T08:09:15;12.00;;;10.80;;
2944;SDS011;1482;51.398;7.128;2023-03-01T08:11:41;14.13;;;12.67;;
2944;SDS011;1482;51.398;7.128;2023-03-01T08:14:07;12.67;;;10.80;;
2944;SDS011;1482;51.398;7.128;2023-03-01T08:16:32;12.87;;;11.67;;
2944;SDS011;1482;51.398;7.128;2023-03-01T08:19:03;11.90;;;10.70;;
2944;SDS011;1482;51.398;7.128;2023-03-01T08:21:32;11.23;;;9.90;;
2944;SDS011;1482;51.398;7.128;2023-03-01T08:23:59;12.30;;;10.97;;
2944;SDS011;1482;51.398;7.128;2023-03-01T08:26:29;14.10;;;11.70;;
2944;SDS011;1482;51.398;7.128;2023-03-01T08:28:55;13.27;;;11.83;;
2944;SDS011;1482;51.398;7.128;2023-03-01T08:33:54;12.63;;;11.53;;
2944;SDS011;1482;51.398;7.128;2023-03-01T08:36:28;12.00;;;10.80;;
2944;SDS011;1482;51.398;7.128;2023-03-01T08:38:57;12.80;;;11.50;;
2944;SDS011;1482;51.398;7.128;2023-03-01T08:41:22;12.77;;;11.60;;
2944;SDS011;1482;51.398;7.128;2023-03-01T08:43:48;13.50;;;11.70;;
2944;SDS011;1482;51.398;7.128;2023-03-01T08:46:14;12.60;;;10.80;;
2944;SDS011;1482;51.398;7.128;2023-03-01T08:48:40;12.27;;;10.83;;
2944;SDS011;1482;51.398;7.128;2023-03-01T08:51:09;13.10;;;11.80;;
2944;SDS011;1482;51.398;7.128;2023-03-01T08:53:36;32.97;;;13.00;;
2944;SDS011;1482;51.398;7.128;2023-03-01T08:56:01;12.53;;;11.23;;
2944;SDS011;1482;51.398;7.128;2023-03-01T08:58:28;13.07;;;11.00;;
2944;SDS011;1482;51.398;7.128;2023-03-01T09:00:54;13.70;;;11.63;;
2944;SDS011;1482;51.398;7.128;2023-03-01T09:03:21;14.20;;;10.53;;
2944;SDS011;1482;51.398;7.128;2023-03-01T09:05:47;14.20;;;12.00;;
2944;SDS011;1482;51.398;7.128;2023-03-01T09:08:14;12.00;;;10.97;;
2944;SDS011;1482;51.398;7.128;2023-03-01T09:10:39;16.60;;;11.30;;
2944;SDS011;1482;51.398;7.128;2023-03-01T09:13:05;12.87;;;10.87;;
2944;SDS011;1482;51.398;7.128;2023-03-01T09:15:30;12.87;;;11.57;;
2944;SDS011;1482;51.398;7.128;2023-03-01T09:17:57;11.47;;;10.37;;
2944;SDS011;1482;51.398;7.128;2023-03-01T09:20:23;10.50;;;9.50;;
2944;SDS011;1482;51.398;7.128;2023-03-01T09:22:49;10.57;;;9.33;;
2944;SDS011;1482;51.398;7.128;2023-03-01T09:25:15;10.30;;;8.97;;
2944;SDS011;1482;51.398;7.128;2023-03-01T09:27:40;9.80;;;9.00;;
2944;SDS011;1482;51.398;7.128;2023-03-01T09:30:07;11.00;;;9.90;;
2944;SDS011;1482;51.398;7.128;2023-03-01T09:32:33;11.07;;;9.93;;
2944;SDS011;1482;51.398;7.128;2023-03-01T09:34:59;10.03;;;9.03;;
2944;SDS011;1482;51.398;7.128;2023-03-01T09:37:31;12.87;;;8.83;;
2944;SDS011;1482;51.398;7.128;2023-03-01T09:39:57;11.00;;;8.67;;
2944;SDS011;1482;51.398;7.128;2023-03-01T09:42:23;10.23;;;9.30;;
2944;SDS011;1482;51.398;7.128;2023-03-01T09:44:51;12.33;;;9.37;;
2944;SDS011;1482;51.398;7.128;2023-03-01T09:47:24;10.30;;;8.77;;
2944;SDS011;1482;51.398;7.128;2023-03-01T09:52:33;16.47;;;9.07;;
2944;SDS011;1482;51.398;7.128;2023-03-01T09:55:08;11.23;;;9.00;;
2944;SDS011;1482;51.398;7.128;2023-03-01T09:57:43;10.77;;;7.53;;
2944;SDS011;1482;51.398;7.128;2023-03-01T10:00:20;9.80;;;8.90;;
2944;SDS011;1482;51.398;7.128;2023-03-01T10:03:08;8.60;;;7.80;;
2944;SDS011;1482;51.398;7.128;2023-03-01T10:10:56;8.70;;;7.43;;
2944;SDS011;1482;51.398;7.128;2023-03-01T10:13:27;12.50;;;8.20;;
2944;SDS011;1482;51.398;7.128;2023-03-01T10:16:03;17.37;;;8.67;;
2944;SDS011;1482;51.398;7.128;2023-03-01T10:18:36;9.60;;;8.60;;
2944;SDS011;1482;51.398;7.128;2023-03-01T10:21:12;8.87;;;7.37;;
2944;SDS011;1482;51.398;7.128;2023-03-01T10:23:39;8.90;;;7.57;;
2944;SDS011;1482;51.398;7.128;2023-03-01T10:31:36;12.07;;;8.10;;
2944;SDS011;1482;51.398;7.128;2023-03-01T10:34:10;10.87;;;8.33;;
2944;SDS011;1482;51.398;7.128;2023-03-01T10:36:57;8.50;;;7.57;;
2944;SDS011;1482;51.398;7.128;2023-03-01T10:39:26;10.70;;;7.30;;
2944;SDS011;1482;51.398;7.128;2023-03-01T10:44:45;9.80;;;8.20;;
2944;SDS011;1482;51.398;7.128;2023-03-01T10:49:51;9.17;;;7.27;;
2944;SDS011;1482;51.398;7.128;2023-03-01T10:54:59;12.23;;;8.30;;
2944;SDS011;1482;51.398;7.128;2023-03-01T10:57:41;9.30;;;7.47;;
2944;SDS011;1482;51.398;7.128;2023-03-01T11:00:20;9.13;;;7.40;;
2944;SDS011;1482;51.398;7.128;2023-03-01T11:02:50;10.93;;;7.67;;
2944;SDS011;1482;51.398;7.128;2023-03-01T11:05:23;12.83;;;8.90;;
2944;SDS011;1482;51.398;7.128;2023-03-01T11:07:53;9.00;;;8.10;;
2944;SDS011;1482;51.398;7.128;2023-03-01T11:13:18;8.57;;;7.20;;
2944;SDS011;1482;51.398;7.128;2023-03-01T11:16:00;9.80;;;7.50;;
2944;SDS011;1482;51.398;7.128;2023-03-01T11:18:29;8.33;;;6.43;;
2944;SDS011;1482;51.398;7.128;2023-03-01T11:20:56;9.73;;;7.27;;
2944;SDS011;1482;51.398;7.128;2023-03-01T11:23:23;9.60;;;7.73;;
2944;SDS011;1482;51.398;7.128;2023-03-01T11:26:00;8.70;;;7.47;;
2944;SDS011;1482;51.398;7.128;2023-03-01T11:28:30;13.90;;;7.43;;
2944;SDS011;1482;51.398;7.128;2023-03-01T11:30:57;7.83;;;6.57;;
2944;SDS011;1482;51.398;7.128;2023-03-01T11:39:22;10.00;;;7.80;;
2944;SDS011;1482;51.398;7.128;2023-03-01T11:42:10;14.17;;;7.90;;
2944;SDS011;1482;51.398;7.128;2023-03-01T11:44:40;11.10;;;7.57;;
2944;SDS011;1482;51.398;7.128;2023-03-01T11:50:15;8.37;;;7.23;;
2944;SDS011;1482;51.398;7.128;2023-03-01T11:52:45;11.90;;;8.10;;
2944;SDS011;1482;51.398;7.128;2023-03-01T11:55:19;8.43;;;7.00;;
2944;SDS011;1482;51.398;7.128;2023-03-01T12:03:27;10.40;;;7.83;;
2944;SDS011;1482;51.398;7.128;2023-03-01T12:11:23;13.63;;;8.30;;
2944;SDS011;1482;51.398;7.128;2023-03-01T12:16:57;9.40;;;7.23;;
2944;SDS011;1482;51.398;7.128;2023-03-01T12:22:38;11.47;;;7.80;;
2944;SDS011;1482;51.398;7.128;2023-03-01T12:25:32;9.13;;;8.07;;
2944;SDS011;1482;51.398;7.128;2023-03-01T12:28:31;12.10;;;7.63;;
2944;SDS011;1482;51.398;7.128;2023-03-01T12:37:25;8.73;;;7.60;;
2944;SDS011;1482;51.398;7.128;2023-03-01T12:42:51;7.57;;;6.63;;
2944;SDS011;1482;51.398;7.128;2023-03-01T12:46:15;8.23;;;6.80;;
2944;SDS011;1482;51.398;7.128;2023-03-01T12:51:24;13.27;;;7.40;;
2944;SDS011;1482;51.398;7.128;2023-03-01T12:53:54;10.60;;;7.43;;
2944;SDS011;1482;51.398;7.128;2023-03-01T12:56:23;17.13;;;8.80;;
2944;SDS011;1482;51.398;7.128;2023-03-01T12:58:55;11.83;;;8.10;;
2944;SDS011;1482;51.398;7.128;2023-03-01T13:01:34;10.30;;;8.30;;
2944;SDS011;1482;51.398;7.128;2023-03-01T13:12:53;8.80;;;7.90;;
2944;SDS011;1482;51.398;7.128;2023-03-01T13:15:29;11.60;;;7.00;;
2944;SDS011;1482;51.398;7.128;2023-03-01T13:17:57;9.87;;;8.07;;
2944;SDS011;1482;51.398;7.128;2023-03-01T13:20:32;8.53;;;7.60;;
2944;SDS011;1482;51.398;7.128;2023-03-01T13:31:11;9.40;;;7.60;;
2944;SDS011;1482;51.398;7.128;2023-03-01T13:33:53;11.80;;;8.70;;
2944;SDS011;1482;51.398;7.128;2023-03-01T13:47:36;12.00;;;7.67;;
2944;SDS011;1482;51.398;7.128;2023-03-01T13:49:59;11.40;;;7.47;;
2944;SDS011;1482;51.398;7.128;2023-03-01T13:57:42;10.37;;;8.27;;
2944;SDS011;1482;51.398;7.128;2023-03-01T14:00:27;9.80;;;8.00;;
2944;SDS011;1482;51.398;7.128;2023-03-01T14:05:39;13.17;;;8.13;;
2944;SDS011;1482;51.398;7.128;2023-03-01T14:08:18;23.87;;;7.83;;
2944;SDS011;1482;51.398;7.128;2023-03-01T14:11:30;11.50;;;8.07;;
2944;SDS011;1482;51.398;7.128;2023-03-01T14:17:09;11.70;;;6.60;;
2944;SDS011;1482;51.398;7.128;2023-03-01T14:20:00;9.50;;;7.83;;
2944;SDS011;1482;51.398;7.128;2023-03-01T14:22:34;13.93;;;7.50;;
2944;SDS011;1482;51.398;7.128;2023-03-01T14:25:03;10.67;;;8.40;;
2944;SDS011;1482;51.398;7.128;2023-03-01T14:27:40;11.00;;;7.87;;
2944;SDS011;1482;51.398;7.128;2023-03-01T14:36:07;10.17;;;7.33;;
2944;SDS011;1482;51.398;7.128;2023-03-01T14:38:44;11.97;;;6.90;;
2944;SDS011;1482;51.398;7.128;2023-03-01T14:43:46;11.33;;;7.50;;
2944;SDS011;1482;51.398;7.128;2023-03-01T14:46:25;11.57;;;7.97;;
2944;SDS011;1482;51.398;7.128;2023-03-01T14:48:56;8.77;;;6.10;;
2944;SDS011;1482;51.398;7.128;2023-03-01T14:51:26;7.43;;;6.67;;
2944;SDS011;1482;51.398;7.128;2023-03-01T14:53:52;7.40;;;6.53;;
2944;SDS011;1482;51.398;7.128;2023-03-01T14:56:18;8.63;;;6.83;;
2944;SDS011;1482;51.398;7.128;2023-03-01T14:58:44;12.97;;;6.83;;
2944;SDS011;1482;51.398;7.128;2023-03-01T15:01:13;11.87;;;7.20;;
2944;SDS011;1482;51.398;7.128;2023-03-01T15:03:45;10.40;;;7.00;;
2944;SDS011;1482;51.398;7.128;2023-03-01T15:06:19;10.70;;;6.77;;
2944;SDS011;1482;51.398;7.128;2023-03-01T15:08:48;10.03;;;6.40;;
2944;SDS011;1482;51.398;7.128;2023-03-01T15:13:52;15.07;;;6.70;;
2944;SDS011;1482;51.398;7.128;2023-03-01T15:16:20;7.23;;;6.13;;
2944;SDS011;1482;51.398;7.128;2023-03-01T15:18:50;7.53;;;6.40;;
2944;SDS011;1482;51.398;7.128;2023-03-01T15:21:20;14.17;;;6.20;;
2944;SDS011;1482;51.398;7.128;2023-03-01T15:23:48;9.47;;;5.67;;
2944;SDS011;1482;51.398;7.128;2023-03-01T15:29:05;9.63;;;6.37;;
2944;SDS011;1482;51.398;7.128;2023-03-01T15:31:42;10.43;;;6.20;;
2944;SDS011;1482;51.398;7.128;2023-03-01T15:34:22;9.23;;;6.10;;
2944;SDS011;1482;51.398;7.128;2023-03-01T15:36:50;10.20;;;6.53;;
2944;SDS011;1482;51.398;7.128;2023-03-01T15:41:58;10.43;;;7.17;;
2944;SDS011;1482;51.398;7.128;2023-03-01T15:44:30;7.93;;;5.97;;
2944;SDS011;1482;51.398;7.128;2023-03-01T15:47:00;9.90;;;5.80;;
2944;SDS011;1482;51.398;7.128;2023-03-01T15:49:33;9.70;;;6.23;;
2944;SDS011;1482;51.398;7.128;2023-03-01T15:52:03;9.00;;;6.83;;
2944;SDS011;1482;51.398;7.128;2023-03-01T15:54:30;9.17;;;6.97;;
2944;SDS011;1482;51.398;7.128;2023-03-01T15:56:56;8.53;;;6.00;;
2944;SDS011;1482;51.398;7.128;2023-03-01T15:59:21;8.07;;;6.20;;
2944;SDS011;1482;51.398;7.128;2023-03-01T16:01:47;8.00;;;5.90;;
2944;SDS011;1482;51.398;7.128;2023-03-01T16:04:14;7.53;;;5.40;;
2944;SDS011;1482;51.398;7.128;2023-03-01T16:06:52;12.60;;;6.80;;
2944;SDS011;1482;51.398;7.128;2023-03-01T16:09:22;10.70;;;6.50;;
2944;SDS011;1482;51.398;7.128;2023-03-01T16:11:48;10.03;;;6.67;;
2944;SDS011;1482;51.398;7.128;2023-03-01T16:14:15;10.10;;;6.63;;
2944;SDS011;1482;51.398;7.128;2023-03-01T16:16:41;6.30;;;5.40;;
2944;SDS011;1482;51.398;7.128;2023-03-01T16:19:07;9.00;;;6.17;;
2944;SDS011;1482;51.398;7.128;2023-03-01T16:21:32;8.60;;;6.87;;
2944;SDS011;1482;51.398;7.128;2023-03-01T16:23:58;12.80;;;5.97;;
2944;SDS011;1482;51.398;7.128;2023-03-01T16:26:23;10.43;;;6.57;;
2944;SDS011;1482;51.398;7.128;2023-03-01T16:28:49;9.20;;;6.40;;
2944;SDS011;1482;51.398;7.128;2023-03-01T16:31:18;7.27;;;6.40;;
2944;SDS011;1482;51.398;7.128;2023-03-01T16:33:44;7.70;;;5.67;;
2944;SDS011;1482;51.398;7.128;2023-03-01T16:36:14;7.90;;;5.37;;
2944;SDS011;1482;51.398;7.128;2023-03-01T16:38:41;7.40;;;5.50;;
2944;SDS011;1482;51.398;7.128;2023-03-01T16:41:09;7.27;;;5.53;;
2944;SDS011;1482;51.398;7.128;2023-03-01T16:43:37;10.97;;;6.40;;
2944;SDS011;1482;51.398;7.128;2023-03-01T16:46:13;7.83;;;5.93;;
2944;SDS011;1482;51.398;7.128;2023-03-01T16:48:40;6.67;;;5.67;;
2944;SDS011;1482;51.398;7.128;2023-03-01T16:51:06;13.53;;;6.80;;
2944;SDS011;1482;51.398;7.128;2023-03-01T16:53:33;9.13;;;6.50;;
2944;SDS011;1482;51.398;7.128;2023-03-01T16:56:01;9.93;;;6.83;;
2944;SDS011;1482;51.398;7.128;2023-03-01T16:58:28;11.90;;;7.27;;
2944;SDS011;1482;51.398;7.128;2023-03-01T17:00:54;9.03;;;5.70;;
2944;SDS011;1482;51.398;7.128;2023-03-01T17:03:21;16.70;;;9.67;;
2944;SDS011;1482;51.398;7.128;2023-03-01T17:05:48;13.83;;;8.17;;
2944;SDS011;1482;51.398;7.128;2023-03-01T17:08:15;19.90;;;10.10;;
2944;SDS011;1482;51.398;7.128;2023-03-01T17:10:41;14.40;;;9.87;;
2944;SDS011;1482;51.398;7.128;2023-03-01T17:13:07;14.63;;;7.90;;
2944;SDS011;1482;51.398;7.128;2023-03-01T17:15:33;9.57;;;7.33;;
2944;SDS011;1482;51.398;7.128;2023-03-01T17:17:59;8.07;;;6.23;;
2944;SDS011;1482;51.398;7.128;2023-03-01T17:20:26;9.57;;;6.97;;
2944;SDS011;1482;51.398;7.128;2023-03-01T17:22:52;9.60;;;7.07;;
2944;SDS011;1482;51.398;7.128;2023-03-01T17:25:17;9.10;;;7.00;;
2944;SDS011;1482;51.398;7.128;2023-03-01T17:27:43;15.70;;;8.10;;